sensor_id;sensor_type;location;lat;lon;timestamp;pressure;altitude;pressure_sealevel;temperature;humidity
55466;BME280;41329;41.594;23.810;2023-02-11T00:01:27;96783.53;;;-1.05;46.02
55466;BME280;41329;41.594;23.810;2023-02-11T00:03:53;96782.97;;;-1.07;45.66
55466;BME280;41329;41.594;23.810;2023-02-11T00:06:19;96797.69;;;-0.98;45.37
55466;BME280;41329;41.594;23.810;2023-02-11T00:08:45;96785.41;;;-1.11;45.61
55466;BME280;41329;41.594;23.810;2023-02-11T00:11:14;96800.13;;;-1.02;45.50
55466;BME280;41329;41.594;23.810;2023-02-11T00:13:41;96801.97;;;-1.12;45.77
55466;BME280;41329;41.594;23.810;2023-02-11T00:16:09;96795.97;;;-1.14;45.33
55466;BME280;41329;41.594;23.810;2023-02-11T00:18:36;96776.88;;;-1.29;46.33
55466;BME280;41329;41.594;23.810;2023-02-11T00:21:10;96804.66;;;-1.17;46.41
55466;BME280;41329;41.594;23.810;2023-02-11T00:23:36;96807.06;;;-1.21;46.15
55466;BME280;41329;41.594;23.810;2023-02-11T00:26:03;96811.69;;;-1.21;46.44
55466;BME280;41329;41.594;23.810;2023-02-11T00:28:28;96797.53;;;-1.28;46.17
55466;BME280;41329;41.594;23.810;2023-02-11T00:30:57;96790.69;;;-1.36;46.65
55466;BME280;41329;41.594;23.810;2023-02-11T00:33:23;96795.03;;;-1.35;46.98
55466;BME280;41329;41.594;23.810;2023-02-11T00:35:49;96806.97;;;-1.41;47.15
55466;BME280;41329;41.594;23.810;2023-02-11T00:38:14;96816.16;;;-1.42;46.86
55466;BME280;41329;41.594;23.810;2023-02-11T00:40:40;96816.38;;;-1.48;46.25
55466;BME280;41329;41.594;23.810;2023-02-11T00:43:06;96794.50;;;-1.68;45.88
55466;BME280;41329;41.594;23.810;2023-02-11T00:45:31;96816.78;;;-1.66;45.84
55466;BME280;41329;41.594;23.810;2023-02-11T00:47:56;96812.91;;;-1.75;46.37
55466;BME280;41329;41.594;23.810;2023-02-11T00:50:22;96810.66;;;-1.88;46.45
55466;BME280;41329;41.594;23.810;2023-02-11T00:52:48;96817.06;;;-1.94;46.77
55466;BME280;41329;41.594;23.810;2023-02-11T00:55:14;96813.13;;;-2.13;47.10
55466;BME280;41329;41.594;23.810;2023-02-11T00:57:39;96798.53;;;-2.34;47.66
55466;BME280;41329;41.594;23.810;2023-02-11T01:00:07;96799.75;;;-2.46;48.17
55466;BME280;41329;41.594;23.810;2023-02-11T01:02:32;96808.75;;;-2.41;48.57
55466;BME280;41329;41.594;23.810;2023-02-11T01:04:58;96798.44;;;-2.44;48.97
55466;BME280;41329;41.594;23.810;2023-02-11T01:07:26;96812.41;;;-2.30;48.92
55466;BME280;41329;41.594;23.810;2023-02-11T01:09:52;96796.91;;;-2.35;48.89
55466;BME280;41329;41.594;23.810;2023-02-11T01:12:17;96795.31;;;-2.31;49.33
55466;BME280;41329;41.594;23.810;2023-02-11T01:14:43;96768.16;;;-2.36;49.75
55466;BME280;41329;41.594;23.810;2023-02-11T01:17:09;96814.75;;;-2.12;49.59
55466;BME280;41329;41.594;23.810;2023-02-11T01:19:36;96786.34;;;-2.31;49.75
55466;BME280;41329;41.594;23.810;2023-02-11T01:22:02;96802.78;;;-2.16;49.47
55466;BME280;41329;41.594;23.810;2023-02-11T01:24:27;96799.03;;;-2.10;49.83
55466;BME280;41329;41.594;23.810;2023-02-11T01:26:53;96786.28;;;-2.10;49.28
55466;BME280;41329;41.594;23.810;2023-02-11T01:29:19;96774.59;;;-2.15;48.60
55466;BME280;41329;41.594;23.810;2023-02-11T01:31:44;96789.84;;;-2.09;48.60
55466;BME280;41329;41.594;23.810;2023-02-11T01:34:09;96799.59;;;-2.08;48.30
55466;BME280;41329;41.594;23.810;2023-02-11T01:36:35;96784.63;;;-2.16;48.68
55466;BME280;41329;41.594;23.810;2023-02-11T01:39:00;96792.59;;;-2.04;47.91
55466;BME280;41329;41.594;23.810;2023-02-11T01:41:26;96788.25;;;-2.05;47.87
55466;BME280;41329;41.594;23.810;2023-02-11T01:43:51;96780.59;;;-2.13;47.95
55466;BME280;41329;41.594;23.810;2023-02-11T01:46:37;96790.91;;;-2.37;48.36
55466;BME280;41329;41.594;23.810;2023-02-11T01:49:15;96794.84;;;-2.49;48.34
55466;BME280;41329;41.594;23.810;2023-02-11T01:51:49;96794.16;;;-2.61;49.22
55466;BME280;41329;41.594;23.810;2023-02-11T01:54:19;96771.50;;;-2.98;49.51
55466;BME280;41329;41.594;23.810;2023-02-11T01:57:05;96794.06;;;-2.93;49.97
55466;BME280;41329;41.594;23.810;2023-02-11T02:10:35;96787.59;;;-2.92;50.70
55466;BME280;41329;41.594;23.810;2023-02-11T02:13:02;96736.50;;;-3.26;50.35
55466;BME280;41329;41.594;23.810;2023-02-11T02:15:33;96778.00;;;-2.99;50.22
55466;BME280;41329;41.594;23.810;2023-02-11T02:18:19;96786.38;;;-3.01;50.20
55466;BME280;41329;41.594;23.810;2023-02-11T02:40:39;96760.28;;;-3.50;52.44
55466;BME280;41329;41.594;23.810;2023-02-11T02:43:06;96751.19;;;-3.60;51.94
55466;BME280;41329;41.594;23.810;2023-02-11T02:45:34;96762.47;;;-3.47;51.79
55466;BME280;41329;41.594;23.810;2023-02-11T02:48:00;96745.94;;;-3.50;52.19
55466;BME280;41329;41.594;23.810;2023-02-11T02:50:33;96768.03;;;-3.37;51.89
55466;BME280;41329;41.594;23.810;2023-02-11T02:55:43;96744.84;;;-3.49;51.88
55466;BME280;41329;41.594;23.810;2023-02-11T02:58:40;96702.59;;;-3.72;51.94
55466;BME280;41329;41.594;23.810;2023-02-11T03:01:27;96771.44;;;-3.25;52.03
55466;BME280;41329;41.594;23.810;2023-02-11T03:04:12;96765.94;;;-3.30;52.48
55466;BME280;41329;41.594;23.810;2023-02-11T03:12:21;96766.66;;;-3.18;52.56
55466;BME280;41329;41.594;23.810;2023-02-11T03:14:48;96768.88;;;-3.15;52.89
55466;BME280;41329;41.594;23.810;2023-02-11T03:17:15;96764.91;;;-3.07;53.32
55466;BME280;41329;41.594;23.810;2023-02-11T03:19:43;96757.34;;;-3.05;53.05
55466;BME280;41329;41.594;23.810;2023-02-11T03:22:19;96751.34;;;-3.07;52.70
55466;BME280;41329;41.594;23.810;2023-02-11T03:24:47;96775.22;;;-3.04;51.59
55466;BME280;41329;41.594;23.810;2023-02-11T03:30:05;96759.84;;;-3.42;51.68
55466;BME280;41329;41.594;23.810;2023-02-11T03:32:37;96711.06;;;-3.85;51.68
55466;BME280;41329;41.594;23.810;2023-02-11T03:37:37;96772.59;;;-3.75;52.28
55466;BME280;41329;41.594;23.810;2023-02-11T03:40:14;96751.81;;;-3.91;52.58
55466;BME280;41329;41.594;23.810;2023-02-11T03:42:47;96771.69;;;-3.81;52.78
55466;BME280;41329;41.594;23.810;2023-02-11T03:45:17;96753.75;;;-4.03;53.30
55466;BME280;41329;41.594;23.810;2023-02-11T03:47:48;96773.03;;;-4.00;53.71
55466;BME280;41329;41.594;23.810;2023-02-11T03:50:16;96769.84;;;-3.97;53.79
55466;BME280;41329;41.594;23.810;2023-02-11T03:52:44;96776.66;;;-3.94;53.26
55466;BME280;41329;41.594;23.810;2023-02-11T03:55:12;96780.50;;;-3.90;53.07
55466;BME280;41329;41.594;23.810;2023-02-11T03:57:40;96771.25;;;-3.94;53.09
55466;BME280;41329;41.594;23.810;2023-02-11T04:00:06;96774.50;;;-3.92;53.19
55466;BME280;41329;41.594;23.810;2023-02-11T04:02:34;96746.41;;;-4.08;53.14
55466;BME280;41329;41.594;23.810;2023-02-11T04:05:01;96753.69;;;-4.08;53.56
55466;BME280;41329;41.594;23.810;2023-02-11T04:07:27;96765.47;;;-3.98;53.67
55466;BME280;41329;41.594;23.810;2023-02-11T04:09:52;96760.31;;;-3.99;53.31
55466;BME280;41329;41.594;23.810;2023-02-11T04:12:18;96768.44;;;-4.16;53.61
55466;BME280;41329;41.594;23.810;2023-02-11T04:14:44;96775.66;;;-4.05;53.52
55466;BME280;41329;41.594;23.810;2023-02-11T04:17:09;96754.84;;;-4.04;53.64
55466;BME280;41329;41.594;23.810;2023-02-11T04:19:35;96766.78;;;-4.00;52.95
55466;BME280;41329;41.594;23.810;2023-02-11T04:22:01;96764.34;;;-4.02;52.96
55466;BME280;41329;41.594;23.810;2023-02-11T04:24:27;96772.28;;;-3.95;52.68
55466;BME280;41329;41.594;23.810;2023-02-11T04:26:52;96765.84;;;-3.94;53.44
55466;BME280;41329;41.594;23.810;2023-02-11T04:29:18;96767.16;;;-3.97;53.19
55466;BME280;41329;41.594;23.810;2023-02-11T04:31:44;96764.09;;;-4.00;52.67
55466;BME280;41329;41.594;23.810;2023-02-11T04:34:10;96767.94;;;-3.96;53.11
55466;BME280;41329;41.594;23.810;2023-02-11T04:36:35;96769.84;;;-3.97;53.26
55466;BME280;41329;41.594;23.810;2023-02-11T04:39:01;96760.41;;;-3.94;53.19
55466;BME280;41329;41.594;23.810;2023-02-11T04:41:26;96772.63;;;-3.92;53.21
55466;BME280;41329;41.594;23.810;2023-02-11T04:43:52;96780.56;;;-3.85;52.90
55466;BME280;41329;41.594;23.810;2023-02-11T04:46:17;96755.25;;;-3.96;52.79
55466;BME280;41329;41.594;23.810;2023-02-11T04:48:43;96775.16;;;-3.85;52.75
55466;BME280;41329;41.594;23.810;2023-02-11T04:51:09;96761.81;;;-3.92;52.92
55466;BME280;41329;41.594;23.810;2023-02-11T04:53:34;96766.16;;;-3.91;52.98
55466;BME280;41329;41.594;23.810;2023-02-11T04:55:59;96730.38;;;-4.14;53.14
55466;BME280;41329;41.594;23.810;2023-02-11T04:58:25;96781.19;;;-3.78;53.21
55466;BME280;41329;41.594;23.810;2023-02-11T05:00:50;96775.56;;;-3.77;53.61
55466;BME280;41329;41.594;23.810;2023-02-11T05:03:16;96773.91;;;-3.78;53.43
55466;BME280;41329;41.594;23.810;2023-02-11T05:05:42;96772.34;;;-3.74;53.13
55466;BME280;41329;41.594;23.810;2023-02-11T05:08:08;96790.28;;;-3.68;53.58
55466;BME280;41329;41.594;23.810;2023-02-11T05:10:35;96788.25;;;-3.94;52.85
55466;BME280;41329;41.594;23.810;2023-02-11T05:13:01;96771.66;;;-4.02;53.01
55466;BME280;41329;41.594;23.810;2023-02-11T05:15:27;96762.72;;;-4.03;53.21
55466;BME280;41329;41.594;23.810;2023-02-11T05:17:53;96782.94;;;-4.05;52.49
55466;BME280;41329;41.594;23.810;2023-02-11T05:20:18;96762.97;;;-4.21;52.75
55466;BME280;41329;41.594;23.810;2023-02-11T05:22:44;96787.78;;;-4.07;52.92
55466;BME280;41329;41.594;23.810;2023-02-11T05:25:09;96785.97;;;-4.18;52.99
55466;BME280;41329;41.594;23.810;2023-02-11T05:27:35;96786.91;;;-4.24;52.99
55466;BME280;41329;41.594;23.810;2023-02-11T05:30:00;96774.41;;;-4.30;53.69
55466;BME280;41329;41.594;23.810;2023-02-11T05:32:26;96788.81;;;-4.25;53.83
55466;BME280;41329;41.594;23.810;2023-02-11T05:34:52;96794.00;;;-4.23;53.44
55466;BME280;41329;41.594;23.810;2023-02-11T05:37:17;96795.38;;;-4.21;53.60
55466;BME280;41329;41.594;23.810;2023-02-11T05:39:43;96799.72;;;-4.20;53.60
55466;BME280;41329;41.594;23.810;2023-02-11T05:42:08;96761.28;;;-4.38;54.24
55466;BME280;41329;41.594;23.810;2023-02-11T05:44:34;96774.72;;;-4.27;54.66
55466;BME280;41329;41.594;23.810;2023-02-11T05:46:59;96775.06;;;-4.23;54.30
55466;BME280;41329;41.594;23.810;2023-02-11T05:49:25;96795.31;;;-4.09;54.81
55466;BME280;41329;41.594;23.810;2023-02-11T05:51:50;96794.00;;;-4.07;54.77
55466;BME280;41329;41.594;23.810;2023-02-11T05:54:16;96782.78;;;-4.15;54.86
55466;BME280;41329;41.594;23.810;2023-02-11T05:56:41;96802.19;;;-4.18;54.88
55466;BME280;41329;41.594;23.810;2023-02-11T05:59:07;96805.28;;;-4.10;54.46
55466;BME280;41329;41.594;23.810;2023-02-11T06:01:33;96791.53;;;-4.25;54.35
55466;BME280;41329;41.594;23.810;2023-02-11T06:03:58;96801.78;;;-4.10;54.24
55466;BME280;41329;41.594;23.810;2023-02-11T06:06:24;96788.44;;;-4.17;54.25
55466;BME280;41329;41.594;23.810;2023-02-11T06:08:49;96812.81;;;-3.95;54.30
55466;BME280;41329;41.594;23.810;2023-02-11T06:11:15;96802.41;;;-4.03;54.02
55466;BME280;41329;41.594;23.810;2023-02-11T06:13:41;96795.31;;;-4.09;53.96
55466;BME280;41329;41.594;23.810;2023-02-11T06:16:06;96819.78;;;-3.99;53.82
55466;BME280;41329;41.594;23.810;2023-02-11T06:18:32;96803.41;;;-4.09;53.96
55466;BME280;41329;41.594;23.810;2023-02-11T06:21:00;96808.16;;;-4.16;54.15
55466;BME280;41329;41.594;23.810;2023-02-11T06:23:26;96802.72;;;-4.33;54.22
55466;BME280;41329;41.594;23.810;2023-02-11T06:25:52;96811.63;;;-4.49;54.73
55466;BME280;41329;41.594;23.810;2023-02-11T06:28:18;96803.84;;;-4.45;55.13
55466;BME280;41329;41.594;23.810;2023-02-11T06:30:44;96817.53;;;-4.35;55.55
55466;BME280;41329;41.594;23.810;2023-02-11T06:33:09;96809.69;;;-4.37;55.84
55466;BME280;41329;41.594;23.810;2023-02-11T06:35:37;96800.66;;;-4.42;56.11
55466;BME280;41329;41.594;23.810;2023-02-11T06:38:03;96793.44;;;-4.53;56.77
55466;BME280;41329;41.594;23.810;2023-02-11T06:40:28;96798.88;;;-4.65;57.34
55466;BME280;41329;41.594;23.810;2023-02-11T06:42:54;96755.03;;;-4.72;57.34
55466;BME280;41329;41.594;23.810;2023-02-11T06:45:19;96782.09;;;-4.39;57.48
55466;BME280;41329;41.594;23.810;2023-02-11T06:47:45;96799.00;;;-4.15;57.46
55466;BME280;41329;41.594;23.810;2023-02-11T06:50:12;96801.84;;;-4.05;57.45
55466;BME280;41329;41.594;23.810;2023-02-11T06:52:38;96797.44;;;-3.95;57.59
55466;BME280;41329;41.594;23.810;2023-02-11T06:55:04;96795.63;;;-3.73;57.75
55466;BME280;41329;41.594;23.810;2023-02-11T06:57:30;96783.16;;;-3.57;57.72
55466;BME280;41329;41.594;23.810;2023-02-11T06:59:59;96791.56;;;-3.37;57.44
55466;BME280;41329;41.594;23.810;2023-02-11T07:02:24;96795.22;;;-3.27;57.08
55466;BME280;41329;41.594;23.810;2023-02-11T07:04:50;96790.28;;;-3.13;57.04
55466;BME280;41329;41.594;23.810;2023-02-11T07:07:15;96793.81;;;-2.91;56.80
55466;BME280;41329;41.594;23.810;2023-02-11T07:09:41;96787.19;;;-2.79;57.17
55466;BME280;41329;41.594;23.810;2023-02-11T07:12:08;96792.81;;;-2.59;56.51
55466;BME280;41329;41.594;23.810;2023-02-11T07:14:34;96800.06;;;-2.43;56.13
55466;BME280;41329;41.594;23.810;2023-02-11T07:16:59;96790.03;;;-2.42;55.50
55466;BME280;41329;41.594;23.810;2023-02-11T07:19:25;96771.75;;;-2.30;56.24
55466;BME280;41329;41.594;23.810;2023-02-11T07:21:50;96786.56;;;-2.11;55.89
55466;BME280;41329;41.594;23.810;2023-02-11T07:24:16;96779.88;;;-2.04;56.45
55466;BME280;41329;41.594;23.810;2023-02-11T07:26:41;96779.00;;;-1.78;56.27
55466;BME280;41329;41.594;23.810;2023-02-11T07:29:07;96784.53;;;-1.63;55.29
55466;BME280;41329;41.594;23.810;2023-02-11T07:31:32;96767.44;;;-1.63;54.93
55466;BME280;41329;41.594;23.810;2023-02-11T07:34:00;96767.78;;;-1.50;54.94
55466;BME280;41329;41.594;23.810;2023-02-11T07:36:27;96780.66;;;-1.72;53.92
55466;BME280;41329;41.594;23.810;2023-02-11T07:38:53;96769.63;;;-1.92;53.91
55466;BME280;41329;41.594;23.810;2023-02-11T07:41:20;96772.97;;;-1.85;54.68
55466;BME280;41329;41.594;23.810;2023-02-11T07:43:46;96774.94;;;-2.07;54.71
55466;BME280;41329;41.594;23.810;2023-02-11T07:46:20;96762.72;;;-1.78;56.33
55466;BME280;41329;41.594;23.810;2023-02-11T07:48:47;96775.47;;;-1.73;54.46
55466;BME280;41329;41.594;23.810;2023-02-11T07:51:18;96772.38;;;-1.55;54.82
55466;BME280;41329;41.594;23.810;2023-02-11T07:53:44;96758.03;;;-1.46;54.28
55466;BME280;41329;41.594;23.810;2023-02-11T07:56:11;96773.13;;;-1.18;53.59
55466;BME280;41329;41.594;23.810;2023-02-11T07:58:37;96765.84;;;-1.13;53.84
55466;BME280;41329;41.594;23.810;2023-02-11T08:01:04;96754.22;;;-1.03;54.38
55466;BME280;41329;41.594;23.810;2023-02-11T08:03:31;96746.41;;;-0.90;53.01
55466;BME280;41329;41.594;23.810;2023-02-11T08:05:57;96742.59;;;-0.89;52.49
55466;BME280;41329;41.594;23.810;2023-02-11T08:08:25;96746.94;;;-0.88;53.13
55466;BME280;41329;41.594;23.810;2023-02-11T08:10:51;96734.47;;;-0.84;53.94
55466;BME280;41329;41.594;23.810;2023-02-11T08:13:17;96681.38;;;-1.16;53.12
55466;BME280;41329;41.594;23.810;2023-02-11T08:15:42;96743.44;;;-0.88;52.71
55466;BME280;41329;41.594;23.810;2023-02-11T08:18:07;96732.00;;;-0.90;52.86
55466;BME280;41329;41.594;23.810;2023-02-11T08:20:33;96721.13;;;-0.85;53.04
55466;BME280;41329;41.594;23.810;2023-02-11T08:22:58;96727.19;;;-0.63;52.57
55466;BME280;41329;41.594;23.810;2023-02-11T08:25:24;96717.91;;;-0.77;51.61
55466;BME280;41329;41.594;23.810;2023-02-11T08:27:49;96732.09;;;-0.65;52.05
55466;BME280;41329;41.594;23.810;2023-02-11T08:30:14;96724.56;;;-0.33;52.21
55466;BME280;41329;41.594;23.810;2023-02-11T08:32:40;96712.59;;;-0.32;51.04
55466;BME280;41329;41.594;23.810;2023-02-11T08:35:05;96726.19;;;-0.17;52.37
55466;BME280;41329;41.594;23.810;2023-02-11T08:37:32;96683.75;;;-0.18;51.62
55466;BME280;41329;41.594;23.810;2023-02-11T08:39:58;96724.84;;;0.16;49.85
55466;BME280;41329;41.594;23.810;2023-02-11T08:42:23;96714.50;;;0.08;49.86
55466;BME280;41329;41.594;23.810;2023-02-11T08:44:49;96716.94;;;0.29;51.32
55466;BME280;41329;41.594;23.810;2023-02-11T08:47:14;96700.06;;;0.27;48.96
55466;BME280;41329;41.594;23.810;2023-02-11T08:49:40;96705.53;;;0.22;48.85
55466;BME280;41329;41.594;23.810;2023-02-11T08:52:07;96703.88;;;0.31;49.11
55466;BME280;41329;41.594;23.810;2023-02-11T08:54:32;96692.75;;;0.28;48.73
55466;BME280;41329;41.594;23.810;2023-02-11T08:56:58;96700.91;;;0.33;49.08
55466;BME280;41329;41.594;23.810;2023-02-11T08:59:26;96703.84;;;0.51;48.84
55466;BME280;41329;41.594;23.810;2023-02-11T09:01:51;96700.03;;;0.57;48.85
55466;BME280;41329;41.594;23.810;2023-02-11T09:04:17;96700.00;;;0.62;46.68
55466;BME280;41329;41.594;23.810;2023-02-11T09:06:45;96689.09;;;0.72;49.19
55466;BME280;41329;41.594;23.810;2023-02-11T09:09:13;96694.66;;;1.11;50.05
55466;BME280;41329;41.594;23.810;2023-02-11T09:11:41;96689.66;;;1.33;48.18
55466;BME280;41329;41.594;23.810;2023-02-11T09:14:07;96682.25;;;1.43;47.21
55466;BME280;41329;41.594;23.810;2023-02-11T09:16:35;96688.38;;;1.64;47.42
55466;BME280;41329;41.594;23.810;2023-02-11T09:19:02;96666.47;;;1.74;45.90
55466;BME280;41329;41.594;23.810;2023-02-11T09:21:29;96658.00;;;1.75;45.45
55466;BME280;41329;41.594;23.810;2023-02-11T09:23:55;96670.63;;;2.05;45.85
55466;BME280;41329;41.594;23.810;2023-02-11T09:26:27;96643.84;;;2.07;45.11
55466;BME280;41329;41.594;23.810;2023-02-11T09:28:53;96645.19;;;2.09;43.31
55466;BME280;41329;41.594;23.810;2023-02-11T09:31:21;96659.03;;;2.46;43.88
55466;BME280;41329;41.594;23.810;2023-02-11T09:33:48;96650.16;;;2.59;41.24
55466;BME280;41329;41.594;23.810;2023-02-11T09:36:22;96614.00;;;2.44;41.75
55466;BME280;41329;41.594;23.810;2023-02-11T09:38:49;96602.09;;;2.58;41.08
55466;BME280;41329;41.594;23.810;2023-02-11T09:43:56;96638.44;;;3.24;41.27
55466;BME280;41329;41.594;23.810;2023-02-11T09:46:23;96628.97;;;3.35;40.60
55466;BME280;41329;41.594;23.810;2023-02-11T09:48:52;96638.75;;;3.60;41.02
55466;BME280;41329;41.594;23.810;2023-02-11T09:53:59;96632.16;;;3.79;40.00
55466;BME280;41329;41.594;23.810;2023-02-11T09:56:28;96590.81;;;3.62;38.61
55466;BME280;41329;41.594;23.810;2023-02-11T09:58:53;96608.19;;;3.90;38.98
55466;BME280;41329;41.594;23.810;2023-02-11T10:01:36;96592.78;;;3.94;38.58
55466;BME280;41329;41.594;23.810;2023-02-11T10:07:15;96613.19;;;4.33;36.19
55466;BME280;41329;41.594;23.810;2023-02-11T10:09:55;96594.41;;;4.54;35.69
55466;BME280;41329;41.594;23.810;2023-02-11T10:15:20;96581.94;;;4.61;34.67
55466;BME280;41329;41.594;23.810;2023-02-11T10:18:43;96584.16;;;5.00;37.70
55466;BME280;41329;41.594;23.810;2023-02-11T10:23:51;96569.47;;;5.67;36.78
55466;BME280;41329;41.594;23.810;2023-02-11T10:26:19;96565.22;;;5.96;33.99
55466;BME280;41329;41.594;23.810;2023-02-11T10:28:49;96551.72;;;6.08;33.24
55466;BME280;41329;41.594;23.810;2023-02-11T10:31:23;96533.53;;;6.21;33.55
55466;BME280;41329;41.594;23.810;2023-02-11T10:34:09;96518.75;;;6.39;33.27
55466;BME280;41329;41.594;23.810;2023-02-11T10:36:37;96477.28;;;6.27;30.66
55466;BME280;41329;41.594;23.810;2023-02-11T10:39:13;96517.25;;;6.72;32.11
55466;BME280;41329;41.594;23.810;2023-02-11T10:41:42;96509.06;;;6.81;30.34
55466;BME280;41329;41.594;23.810;2023-02-11T10:44:21;96505.47;;;6.80;29.02
55466;BME280;41329;41.594;23.810;2023-02-11T10:46:49;96509.72;;;6.95;29.14
55466;BME280;41329;41.594;23.810;2023-02-11T10:49:39;96502.28;;;7.04;29.34
55466;BME280;41329;41.594;23.810;2023-02-11T10:52:17;96507.81;;;7.04;28.29
55466;BME280;41329;41.594;23.810;2023-02-11T10:54:56;96489.69;;;7.03;27.62
55466;BME280;41329;41.594;23.810;2023-02-11T10:57:27;96475.88;;;6.94;28.61
55466;BME280;41329;41.594;23.810;2023-02-11T10:59:57;96471.19;;;6.86;28.98
55466;BME280;41329;41.594;23.810;2023-02-11T11:02:29;96480.59;;;7.02;28.24
55466;BME280;41329;41.594;23.810;2023-02-11T11:05:00;96473.81;;;7.00;27.77
55466;BME280;41329;41.594;23.810;2023-02-11T11:07:29;96476.25;;;7.01;26.92
55466;BME280;41329;41.594;23.810;2023-02-11T11:10:07;96449.69;;;7.05;27.16
55466;BME280;41329;41.594;23.810;2023-02-11T11:12:49;96456.50;;;7.08;28.08
55466;BME280;41329;41.594;23.810;2023-02-11T11:15:19;96459.09;;;7.21;28.67
55466;BME280;41329;41.594;23.810;2023-02-11T11:18:07;96452.78;;;7.46;27.01
55466;BME280;41329;41.594;23.810;2023-02-11T11:20:31;96445.31;;;7.64;27.25
55466;BME280;41329;41.594;23.810;2023-02-11T11:23:21;96430.25;;;7.70;27.43
55466;BME280;41329;41.594;23.810;2023-02-11T11:26:11;96431.91;;;8.08;29.72
55466;BME280;41329;41.594;23.810;2023-02-11T11:28:41;96430.94;;;8.21;27.90
55466;BME280;41329;41.594;23.810;2023-02-11T11:31:15;96427.75;;;8.40;29.09
55466;BME280;41329;41.594;23.810;2023-02-11T11:33:44;96430.16;;;8.50;26.04
55466;BME280;41329;41.594;23.810;2023-02-11T11:36:12;96422.16;;;8.57;26.91
55466;BME280;41329;41.594;23.810;2023-02-11T11:38:45;96417.84;;;8.76;27.65
55466;BME280;41329;41.594;23.810;2023-02-11T11:41:21;96412.69;;;8.95;26.92
55466;BME280;41329;41.594;23.810;2023-02-11T11:46:33;96396.25;;;9.40;28.45
55466;BME280;41329;41.594;23.810;2023-02-11T11:52:08;96391.41;;;10.02;27.17
55466;BME280;41329;41.594;23.810;2023-02-11T11:54:35;96387.22;;;9.84;25.39
55466;BME280;41329;41.594;23.810;2023-02-11T11:57:09;96372.88;;;9.37;25.56
55466;BME280;41329;41.594;23.810;2023-02-11T11:59:36;96372.47;;;9.27;28.06
55466;BME280;41329;41.594;23.810;2023-02-11T12:10:56;96345.25;;;10.38;27.24
55466;BME280;41329;41.594;23.810;2023-02-11T12:16:23;96336.16;;;10.38;26.80
55466;BME280;41329;41.594;23.810;2023-02-11T12:21:43;96311.56;;;10.60;26.58
55466;BME280;41329;41.594;23.810;2023-02-11T12:24:52;96327.03;;;10.73;24.40
55466;BME280;41329;41.594;23.810;2023-02-11T12:49:48;96309.41;;;11.60;22.37
55466;BME280;41329;41.594;23.810;2023-02-11T12:52:32;96310.09;;;11.85;23.01
55466;BME280;41329;41.594;23.810;2023-02-11T12:55:34;96295.06;;;11.70;20.79
55466;BME280;41329;41.594;23.810;2023-02-11T12:58:01;96298.59;;;11.71;20.43
55466;BME280;41329;41.594;23.810;2023-02-11T13:00:44;96296.03;;;11.50;20.21
55466;BME280;41329;41.594;23.810;2023-02-11T13:05:52;96288.06;;;11.61;21.71
55466;BME280;41329;41.594;23.810;2023-02-11T13:08:26;96284.88;;;11.74;21.55
55466;BME280;41329;41.594;23.810;2023-02-11T13:10:56;96289.81;;;11.53;21.71
55466;BME280;41329;41.594;23.810;2023-02-11T13:13:39;96274.06;;;11.57;22.27
55466;BME280;41329;41.594;23.810;2023-02-11T13:19:05;96279.41;;;11.78;21.59
55466;BME280;41329;41.594;23.810;2023-02-11T13:21:41;96269.41;;;11.89;21.90
55466;BME280;41329;41.594;23.810;2023-02-11T13:24:40;96276.91;;;12.04;21.53
55466;BME280;41329;41.594;23.810;2023-02-11T13:35:32;96264.47;;;11.98;22.45
55466;BME280;41329;41.594;23.810;2023-02-11T13:37:59;96262.03;;;12.27;21.80
55466;BME280;41329;41.594;23.810;2023-02-11T13:40:32;96243.19;;;12.36;21.92
55466;BME280;41329;41.594;23.810;2023-02-11T13:43:00;96264.41;;;12.44;22.57
55466;BME280;41329;41.594;23.810;2023-02-11T13:45:33;96263.69;;;12.48;22.79
55466;BME280;41329;41.594;23.810;2023-02-11T13:48:03;96217.19;;;12.25;23.50
55466;BME280;41329;41.594;23.810;2023-02-11T13:50:36;96256.81;;;12.76;23.42
55466;BME280;41329;41.594;23.810;2023-02-11T13:53:04;96258.75;;;13.10;23.24
55466;BME280;41329;41.594;23.810;2023-02-11T13:55:31;96251.69;;;13.32;23.07
55466;BME280;41329;41.594;23.810;2023-02-11T14:19:34;96217.78;;;15.20;20.39
55466;BME280;41329;41.594;23.810;2023-02-11T14:27:22;96224.13;;;15.87;19.30
55466;BME280;41329;41.594;23.810;2023-02-11T14:30:18;96222.63;;;15.96;19.30
55466;BME280;41329;41.594;23.810;2023-02-11T14:36:04;96231.13;;;16.57;19.44
55466;BME280;41329;41.594;23.810;2023-02-11T14:43:54;96229.38;;;17.86;18.47
55466;BME280;41329;41.594;23.810;2023-02-11T14:46:22;96222.22;;;18.09;18.54
55466;BME280;41329;41.594;23.810;2023-02-11T14:48:51;96223.44;;;18.40;18.28
55466;BME280;41329;41.594;23.810;2023-02-11T14:51:29;96229.81;;;18.23;17.55
55466;BME280;41329;41.594;23.810;2023-02-11T14:54:19;96220.25;;;18.38;18.30
55466;BME280;41329;41.594;23.810;2023-02-11T14:57:05;96211.03;;;18.48;17.70
55466;BME280;41329;41.594;23.810;2023-02-11T14:59:31;96192.19;;;18.06;17.49
55466;BME280;41329;41.594;23.810;2023-02-11T15:01:56;96211.78;;;17.96;17.51
55466;BME280;41329;41.594;23.810;2023-02-11T15:04:28;96208.19;;;17.99;17.33
55466;BME280;41329;41.594;23.810;2023-02-11T15:06:55;96192.56;;;17.98;17.71
55466;BME280;41329;41.594;23.810;2023-02-11T15:09:35;96211.81;;;18.13;17.58
55466;BME280;41329;41.594;23.810;2023-02-11T15:12:02;96220.16;;;17.88;17.23
55466;BME280;41329;41.594;23.810;2023-02-11T15:14:31;96217.38;;;17.82;17.58
55466;BME280;41329;41.594;23.810;2023-02-11T15:17:01;96221.78;;;17.93;17.69
55466;BME280;41329;41.594;23.810;2023-02-11T15:19:38;96216.16;;;17.79;17.27
55466;BME280;41329;41.594;23.810;2023-02-11T15:22:17;96223.72;;;17.68;17.14
55466;BME280;41329;41.594;23.810;2023-02-11T15:24:44;96228.38;;;17.36;17.34
55466;BME280;41329;41.594;23.810;2023-02-11T15:27:12;96213.09;;;17.09;17.38
55466;BME280;41329;41.594;23.810;2023-02-11T15:29:47;96230.56;;;16.38;17.56
55466;BME280;41329;41.594;23.810;2023-02-11T15:32:20;96226.88;;;15.47;17.72
55466;BME280;41329;41.594;23.810;2023-02-11T15:34:46;96215.84;;;14.91;18.58